createdAt,value
2023-03-30T00:01:15.289Z,70.58
2023-03-30T00:03:44.954Z,70.35
2023-03-30T00:06:14.948Z,70.34
2023-03-30T00:08:44.873Z,70.34
2023-03-30T00:11:15.722Z,70.16
2023-03-30T00:13:44.735Z,70.29
2023-03-30T00:16:14.532Z,70.25
2023-03-30T00:18:45.221Z,70.08
2023-03-30T00:21:13.653Z,70.46
2023-03-30T00:23:42.347Z,70.42
2023-03-30T00:26:13.572Z,70.36
2023-03-30T00:28:42.945Z,70.45
2023-03-30T00:31:12.003Z,70.47
2023-03-30T00:33:46.908Z,70.25
2023-03-30T00:36:16.682Z,70.76
2023-03-30T00:38:45.893Z,70.19
2023-03-30T00:41:16.353Z,70.95
2023-03-30T00:43:55.820Z,70.56
2023-03-30T00:46:25.931Z,70.70
2023-03-30T00:48:58.206Z,71.04
2023-03-30T00:51:27.829Z,70.77
2023-03-30T00:53:58.111Z,71.08
2023-03-30T00:56:30.816Z,71.29
2023-03-30T00:58:59.502Z,71.06
2023-03-30T01:01:29.735Z,71.24
2023-03-30T01:04:00.527Z,71.45
2023-03-30T01:06:30.493Z,71.26
2023-03-30T01:08:59.357Z,71.75
2023-03-30T01:11:29.177Z,71.51
2023-03-30T01:13:59.731Z,71.38
2023-03-30T01:16:31.669Z,71.39
2023-03-30T01:19:06.489Z,71.49
2023-03-30T01:21:51.116Z,71.84
2023-03-30T01:24:36.840Z,71.89
2023-03-30T01:27:13.389Z,71.75
2023-03-30T01:29:47.920Z,71.86
2023-03-30T01:32:28.218Z,72.21
2023-03-30T01:35:09.581Z,71.94
2023-03-30T01:37:45.834Z,72.23
2023-03-30T01:40:16.881Z,71.94
2023-03-30T01:42:50.957Z,71.99
2023-03-30T01:45:24.008Z,72.21
2023-03-30T01:47:55.393Z,72.19
2023-03-30T01:50:26.835Z,72.72
2023-03-30T01:53:00.236Z,72.53
2023-03-30T01:55:34.998Z,72.13
2023-03-30T01:58:05.524Z,72.18
2023-03-30T02:00:36.531Z,72.41
2023-03-30T02:03:09.004Z,72.15
2023-03-30T02:05:38.460Z,72.02
2023-03-30T02:08:10.160Z,72.41
2023-03-30T02:10:40.582Z,72.42
2023-03-30T02:13:09.679Z,72.34
2023-03-30T02:15:40.020Z,72.75
2023-03-30T02:18:08.686Z,72.68
2023-03-30T02:20:37.829Z,72.41
2023-03-30T02:23:09.425Z,72.27
2023-03-30T02:25:39.671Z,72.52
2023-03-30T02:28:08.914Z,72.72
2023-03-30T02:30:40.134Z,72.28
2023-03-30T02:33:09.514Z,72.58
2023-03-30T02:35:45.899Z,72.42
2023-03-30T02:38:20.730Z,72.20
2023-03-30T02:40:58.405Z,72.38
2023-03-30T02:43:35.216Z,72.46
2023-03-30T02:46:15.555Z,72.26
2023-03-30T02:48:50.515Z,72.27
2023-03-30T02:51:25.821Z,71.96
2023-03-30T02:54:16.304Z,72.31
2023-03-30T02:57:01.207Z,72.38
2023-03-30T02:59:32.380Z,72.36
2023-03-30T03:02:04.668Z,72.39
2023-03-30T03:04:35.897Z,72.39
2023-03-30T03:07:15.917Z,72.29
2023-03-30T03:09:44.577Z,72.21
2023-03-30T03:12:14.554Z,72.18
2023-03-30T03:14:43.472Z,72.27
2023-03-30T03:17:13.867Z,72.23
2023-03-30T03:19:46.898Z,72.49
2023-03-30T03:22:16.590Z,72.08
2023-03-30T03:24:47.073Z,72.66
2023-03-30T03:27:28.123Z,72.38
2023-03-30T03:30:08.517Z,72.17
2023-03-30T03:32:45.240Z,72.03
2023-03-30T03:35:14.582Z,71.96
2023-03-30T03:37:42.984Z,71.91
2023-03-30T03:40:12.676Z,71.93
2023-03-30T03:42:43.510Z,71.84
2023-03-30T03:45:14.724Z,71.92
2023-03-30T03:47:54.623Z,72.28
2023-03-30T03:50:34.678Z,72.28
2023-03-30T03:53:03.102Z,72.08
2023-03-30T03:55:34.998Z,72.25
2023-03-30T03:58:05.762Z,72.26
2023-03-30T04:00:34.555Z,72.59
2023-03-30T04:03:04.717Z,72.91
2023-03-30T04:05:33.401Z,72.64
2023-03-30T04:08:02.926Z,72.47
2023-03-30T04:10:31.464Z,72.53
2023-03-30T04:13:02.994Z,72.20
2023-03-30T04:15:53.221Z,72.07
2023-03-30T04:18:37.163Z,72.26
2023-03-30T04:21:27.001Z,72.24
2023-03-30T04:24:06.463Z,72.61
2023-03-30T04:26:49.948Z,72.50
2023-03-30T04:29:31.160Z,73.04
2023-03-30T04:32:13.066Z,72.92
2023-03-30T04:35:02.105Z,73.02
2023-03-30T04:37:58.393Z,72.82
2023-03-30T04:40:38.153Z,73.34
2023-03-30T04:43:29.525Z,73.49
2023-03-30T04:46:09.110Z,73.70
2023-03-30T04:48:50.145Z,73.66
2023-03-30T04:51:42.826Z,73.49
2023-03-30T04:54:23.246Z,73.75
2023-03-30T04:57:01.727Z,73.61
2023-03-30T04:59:42.494Z,73.71
2023-03-30T05:02:14.904Z,73.71
2023-03-30T05:04:55.967Z,73.35
2023-03-30T05:07:35.539Z,72.85
2023-03-30T05:10:15.123Z,73.11
2023-03-30T05:12:55.356Z,72.66
2023-03-30T05:15:33.834Z,72.75
2023-03-30T05:18:13.500Z,72.58
2023-03-30T05:21:05.287Z,72.52
2023-03-30T05:23:37.000Z,72.38
2023-03-30T05:26:17.370Z,72.64
2023-03-30T05:28:56.057Z,72.44
2023-03-30T05:31:44.995Z,72.33
2023-03-30T05:34:28.388Z,72.49
2023-03-30T05:37:24.743Z,72.59
2023-03-30T05:40:07.609Z,72.74
2023-03-30T05:42:45.238Z,73.05
2023-03-30T05:45:33.976Z,73.22
2023-03-30T05:48:13.317Z,73.32
2023-03-30T05:50:48.770Z,73.52
2023-03-30T05:53:29.786Z,73.20
2023-03-30T05:56:12.797Z,73.32
2023-03-30T05:59:01.662Z,73.50
2023-03-30T06:01:42.581Z,73.67
2023-03-30T06:04:11.324Z,73.10
2023-03-30T06:06:39.954Z,73.17
2023-03-30T06:09:10.431Z,72.62
2023-03-30T06:11:39.357Z,72.73
2023-03-30T06:14:18.435Z,72.32
2023-03-30T06:17:06.608Z,72.55
2023-03-30T06:19:35.634Z,72.03
2023-03-30T06:22:04.074Z,71.75
2023-03-30T06:24:49.800Z,71.23
2023-03-30T06:27:18.716Z,70.93
2023-03-30T06:29:48.045Z,71.21
2023-03-30T06:32:17.052Z,70.55
2023-03-30T06:34:48.734Z,70.62
2023-03-30T06:37:18.401Z,70.33
2023-03-30T06:39:47.008Z,70.34
2023-03-30T06:42:16.851Z,69.43
2023-03-30T06:45:08.974Z,69.61
2023-03-30T06:47:39.324Z,69.27
2023-03-30T06:50:08.271Z,69.33
2023-03-30T06:52:57.131Z,69.18
2023-03-30T06:55:28.687Z,68.96
2023-03-30T06:57:58.807Z,68.75
2023-03-30T07:00:28.232Z,68.30
2023-03-30T07:03:20.192Z,67.99
2023-03-30T07:06:14.536Z,67.80
2023-03-30T07:08:42.950Z,68.12
2023-03-30T07:11:15.230Z,68.12
2023-03-30T07:13:45.186Z,68.22
2023-03-30T07:16:13.849Z,67.55
2023-03-30T07:18:42.632Z,68.24
2023-03-30T07:21:11.689Z,67.41
2023-03-30T07:23:43.772Z,67.37
2023-03-30T07:26:24.044Z,67.82
2023-03-30T07:29:02.048Z,67.27
2023-03-30T07:31:32.102Z,66.18
2023-03-30T07:34:04.458Z,66.12
2023-03-30T07:36:39.161Z,65.02
2023-03-30T07:39:08.453Z,64.32
2023-03-30T07:41:39.487Z,64.31
2023-03-30T07:44:09.478Z,63.92
2023-03-30T07:46:38.034Z,63.79
2023-03-30T07:49:07.063Z,64.12
2023-03-30T07:51:39.109Z,64.88
2023-03-30T07:54:22.770Z,64.60
2023-03-30T07:57:02.264Z,64.94
2023-03-30T07:59:32.321Z,64.82
2023-03-30T08:02:13.578Z,65.89
2023-03-30T08:04:54.485Z,65.15
2023-03-30T08:07:43.199Z,65.66
2023-03-30T08:10:21.440Z,66.00
2023-03-30T08:12:49.950Z,66.21
2023-03-30T08:15:19.988Z,65.69
2023-03-30T08:17:48.642Z,67.05
2023-03-30T08:20:17.110Z,67.10
2023-03-30T08:22:45.818Z,67.15
2023-03-30T08:25:14.197Z,66.63
2023-03-30T08:27:42.476Z,66.26
2023-03-30T08:30:13.371Z,66.86
2023-03-30T08:32:43.211Z,66.38
2023-03-30T08:35:11.741Z,66.45
2023-03-30T08:37:40.352Z,65.46
2023-03-30T08:40:11.106Z,64.79
2023-03-30T08:42:47.867Z,64.60
2023-03-30T08:45:16.845Z,64.10
2023-03-30T08:47:49.855Z,63.40
2023-03-30T08:50:20.031Z,62.67
2023-03-30T08:52:48.754Z,62.46
2023-03-30T08:55:20.041Z,62.20
2023-03-30T08:57:51.355Z,61.88
2023-03-30T09:00:28.087Z,60.37
2023-03-30T09:03:03.582Z,60.09
2023-03-30T09:05:35.388Z,59.31
2023-03-30T09:08:06.516Z,58.63
2023-03-30T09:10:38.637Z,57.66
2023-03-30T09:13:07.647Z,57.40
2023-03-30T09:15:37.809Z,56.67
2023-03-30T09:18:13.599Z,56.58
2023-03-30T09:20:43.643Z,55.62
2023-03-30T09:23:14.934Z,54.95
2023-03-30T09:25:46.192Z,54.83
2023-03-30T09:28:18.569Z,55.09
2023-03-30T09:30:48.898Z,54.87
2023-03-30T09:33:26.601Z,54.82
2023-03-30T09:36:02.206Z,54.54
2023-03-30T09:38:32.398Z,54.71
2023-03-30T09:41:07.778Z,54.40
2023-03-30T09:43:37.638Z,54.06
2023-03-30T09:46:08.084Z,53.74
2023-03-30T09:48:42.777Z,54.19
2023-03-30T09:51:19.151Z,54.11
2023-03-30T09:53:48.384Z,53.53
2023-03-30T09:56:19.890Z,53.83
2023-03-30T09:58:48.258Z,53.20
2023-03-30T10:01:18.631Z,53.79
2023-03-30T10:04:05.330Z,54.01
2023-03-30T10:06:38.387Z,53.35
2023-03-30T10:09:09.852Z,53.35
2023-03-30T10:11:41.494Z,52.49
2023-03-30T10:14:21.588Z,52.25
2023-03-30T10:16:50.043Z,51.85
2023-03-30T10:19:20.128Z,51.44
2023-03-30T10:21:55.368Z,51.59
2023-03-30T10:24:24.660Z,51.31
2023-03-30T10:26:53.912Z,51.24
2023-03-30T10:29:24.547Z,51.34
2023-03-30T10:31:57.926Z,51.23
2023-03-30T10:34:33.120Z,50.85
2023-03-30T10:37:05.992Z,50.67
2023-03-30T10:39:35.465Z,51.18
2023-03-30T10:42:05.008Z,51.06
2023-03-30T10:44:34.370Z,50.83
2023-03-30T10:47:08.654Z,50.87
2023-03-30T10:49:45.605Z,51.22
2023-03-30T10:52:17.902Z,50.97
2023-03-30T10:54:51.545Z,51.17
2023-03-30T10:57:21.714Z,50.58
2023-03-30T10:59:57.394Z,50.45
2023-03-30T11:02:38.834Z,50.37
2023-03-30T11:05:12.666Z,50.38
2023-03-30T11:07:45.669Z,50.25
2023-03-30T11:10:17.588Z,50.06
2023-03-30T11:12:49.168Z,49.75
2023-03-30T11:15:19.505Z,50.00
2023-03-30T11:17:55.577Z,50.02
2023-03-30T11:20:27.551Z,50.28
2023-03-30T11:23:01.044Z,50.65
2023-03-30T11:25:31.392Z,50.11
2023-03-30T11:28:01.712Z,50.05
2023-03-30T11:30:31.457Z,49.78
2023-03-30T11:33:03.705Z,49.50
2023-03-30T11:35:36.322Z,48.97
2023-03-30T11:38:10.597Z,48.47
2023-03-30T11:40:42.326Z,48.71
2023-03-30T11:43:11.768Z,48.77
2023-03-30T11:45:45.061Z,49.51
2023-03-30T11:48:27.270Z,49.73
2023-03-30T11:51:03.790Z,50.74
2023-03-30T11:53:36.134Z,50.62
2023-03-30T11:56:07.976Z,50.68
2023-03-30T11:58:37.515Z,50.52
2023-03-30T12:01:22.176Z,50.66
2023-03-30T12:03:52.807Z,51.67
2023-03-30T12:06:32.455Z,52.00
2023-03-30T12:09:11.901Z,52.16
2023-03-30T12:11:43.510Z,52.03
2023-03-30T12:14:24.765Z,52.34
2023-03-30T12:16:55.758Z,52.58
2023-03-30T12:19:28.043Z,52.71
2023-03-30T12:22:00.338Z,52.34
2023-03-30T12:24:31.052Z,52.10
2023-03-30T12:27:06.113Z,52.56
2023-03-30T12:32:25.698Z,53.20
2023-03-30T12:34:55.795Z,53.00
2023-03-30T12:37:28.696Z,53.01
2023-03-30T12:39:59.214Z,53.26
2023-03-30T12:42:35.602Z,53.69
2023-03-30T12:45:15.109Z,53.63
2023-03-30T12:47:58.761Z,53.81
2023-03-30T12:50:32.317Z,53.89
2023-03-30T12:53:18.539Z,54.25
2023-03-30T12:55:48.830Z,54.48
2023-03-30T12:58:37.842Z,54.23
2023-03-30T13:01:14.202Z,54.36
2023-03-30T13:03:49.665Z,54.90
2023-03-30T13:06:27.355Z,55.34
2023-03-30T13:08:56.595Z,55.35
2023-03-30T13:11:24.862Z,55.46
2023-03-30T13:13:55.202Z,55.20
2023-03-30T13:16:34.482Z,54.77
2023-03-30T13:19:11.806Z,53.81
2023-03-30T13:21:48.025Z,53.17
2023-03-30T13:24:26.226Z,52.55
2023-03-30T13:26:54.730Z,52.08
2023-03-30T13:29:26.626Z,51.97
2023-03-30T13:32:02.454Z,51.64
2023-03-30T13:34:37.784Z,51.63
2023-03-30T13:37:11.253Z,51.16
2023-03-30T13:39:44.447Z,51.65
2023-03-30T13:42:19.535Z,51.95
2023-03-30T13:44:50.989Z,51.88
2023-03-30T13:47:37.877Z,52.04
2023-03-30T13:50:14.299Z,52.44
2023-03-30T13:52:45.712Z,52.49
2023-03-30T13:55:17.770Z,52.74
2023-03-30T13:57:46.301Z,52.64
2023-03-30T14:00:28.568Z,52.71
2023-03-30T14:02:57.074Z,53.60
2023-03-30T14:05:28.763Z,54.23
2023-03-30T14:07:57.899Z,55.18
2023-03-30T14:10:27.176Z,55.46
2023-03-30T14:12:56.960Z,56.17
2023-03-30T14:15:27.594Z,56.68
2023-03-30T14:17:58.507Z,57.20
2023-03-30T14:20:41.636Z,57.60
2023-03-30T14:23:16.039Z,57.96
2023-03-30T14:25:44.549Z,58.83
2023-03-30T14:28:14.754Z,59.21
2023-03-30T14:30:51.433Z,61.04
2023-03-30T14:33:21.710Z,62.28
2023-03-30T14:35:53.087Z,63.57
2023-03-30T14:38:24.268Z,64.46
2023-03-30T14:40:53.540Z,65.24
2023-03-30T14:43:24.738Z,65.64
2023-03-30T14:45:54.100Z,66.18
2023-03-30T14:48:25.032Z,66.50
2023-03-30T14:50:54.925Z,66.64
2023-03-30T14:53:26.615Z,66.83
2023-03-30T14:55:58.334Z,67.32
2023-03-30T14:58:28.348Z,68.04
2023-03-30T15:00:58.992Z,68.47
2023-03-30T15:03:33.937Z,69.04
2023-03-30T15:06:06.415Z,69.81
2023-03-30T15:08:37.948Z,70.27
2023-03-30T15:11:10.335Z,70.86
2023-03-30T15:13:41.112Z,71.04
2023-03-30T15:16:11.630Z,71.87
2023-03-30T15:18:40.132Z,72.39
2023-03-30T15:21:11.268Z,72.80
2023-03-30T15:23:41.040Z,73.25
2023-03-30T15:26:09.715Z,73.76
2023-03-30T15:28:44.850Z,74.14
2023-03-30T15:31:15.399Z,74.57
2023-03-30T15:33:45.810Z,75.00
2023-03-30T15:36:19.362Z,75.10
2023-03-30T15:38:52.432Z,75.21
2023-03-30T15:41:23.722Z,75.83
2023-03-30T15:43:56.662Z,76.12
2023-03-30T15:46:28.283Z,75.98
2023-03-30T15:48:59.582Z,76.08
2023-03-30T15:51:33.244Z,76.85
2023-03-30T15:54:04.060Z,77.11
2023-03-30T15:56:36.227Z,76.78
2023-03-30T15:59:06.112Z,77.35
2023-03-30T16:01:43.493Z,77.16
2023-03-30T16:04:14.414Z,77.39
2023-03-30T16:06:47.125Z,77.14
2023-03-30T16:09:16.120Z,77.38
2023-03-30T16:11:45.638Z,78.08
2023-03-30T16:14:15.574Z,78.06
2023-03-30T16:16:44.423Z,77.93
2023-03-30T16:19:13.405Z,77.98
2023-03-30T16:21:43.287Z,78.41
2023-03-30T16:24:15.646Z,78.31
2023-03-30T16:26:44.242Z,78.89
2023-03-30T16:29:16.722Z,78.66
2023-03-30T16:31:45.267Z,78.98
2023-03-30T16:34:13.642Z,79.46
2023-03-30T16:36:42.392Z,79.28
2023-03-30T16:39:17.801Z,80.05
2023-03-30T16:41:48.515Z,79.92
2023-03-30T16:44:17.003Z,80.17
2023-03-30T16:46:45.936Z,79.83
2023-03-30T16:49:15.535Z,80.13
2023-03-30T16:51:44.431Z,80.76
2023-03-30T16:54:27.292Z,80.17
2023-03-30T16:57:01.300Z,80.65
2023-03-30T16:59:31.108Z,80.37
2023-03-30T17:01:59.473Z,80.84
2023-03-30T17:04:28.432Z,80.63
2023-03-30T17:06:56.874Z,80.36
2023-03-30T17:09:25.681Z,80.32
2023-03-30T17:11:54.108Z,80.52
2023-03-30T17:14:24.494Z,80.83
2023-03-30T17:16:53.145Z,80.86
2023-03-30T17:19:21.821Z,81.08
2023-03-30T17:21:50.441Z,80.88
2023-03-30T17:24:18.848Z,81.58
2023-03-30T17:26:47.392Z,81.74
2023-03-30T17:29:15.665Z,81.92
2023-03-30T17:31:48.274Z,81.54
2023-03-30T17:34:16.841Z,82.62
2023-03-30T17:36:45.915Z,82.55
2023-03-30T17:39:14.647Z,83.00
2023-03-30T17:41:43.041Z,83.21
2023-03-30T17:44:11.497Z,83.59
2023-03-30T17:46:43.382Z,83.76
2023-03-30T17:49:16.354Z,83.98
2023-03-30T17:51:44.872Z,83.92
2023-03-30T17:54:13.241Z,84.63
2023-03-30T17:56:42.023Z,84.87
2023-03-30T17:59:11.488Z,84.80
2023-03-30T18:01:41.357Z,84.78
2023-03-30T18:04:10.064Z,84.93
2023-03-30T18:06:40.969Z,85.82
2023-03-30T18:09:15.285Z,86.04
2023-03-30T18:11:44.191Z,85.95
2023-03-30T18:14:12.535Z,85.82
2023-03-30T18:16:43.656Z,85.58
2023-03-30T18:19:13.057Z,85.14
2023-03-30T18:21:43.343Z,86.29
2023-03-30T18:24:11.828Z,86.31
2023-03-30T18:26:43.207Z,86.19
2023-03-30T18:29:20.466Z,86.48
2023-03-30T18:31:49.806Z,86.04
2023-03-30T18:34:19.865Z,86.39
2023-03-30T18:36:49.767Z,86.40
2023-03-30T18:39:20.139Z,86.53
2023-03-30T18:41:48.851Z,86.27
2023-03-30T18:44:17.304Z,85.95
2023-03-30T18:46:47.254Z,86.96
2023-03-30T18:49:16.974Z,86.76
2023-03-30T18:51:45.472Z,86.46
2023-03-30T18:54:15.455Z,86.31
2023-03-30T18:56:45.809Z,86.25
2023-03-30T18:59:14.209Z,87.18
2023-03-30T19:01:46.278Z,86.45
2023-03-30T19:04:15.268Z,86.68
2023-03-30T19:06:44.770Z,86.85
2023-03-30T19:09:13.245Z,86.63
2023-03-30T19:11:43.096Z,87.22
2023-03-30T19:14:12.654Z,86.28
2023-03-30T19:16:42.155Z,87.24
2023-03-30T19:19:14.940Z,87.18
2023-03-30T19:21:46.285Z,86.84
2023-03-30T19:24:14.846Z,87.38
2023-03-30T19:26:44.695Z,87.61
2023-03-30T19:29:13.816Z,87.23
2023-03-30T19:31:42.236Z,87.39
2023-03-30T19:34:10.740Z,87.58
2023-03-30T19:36:39.206Z,86.98
2023-03-30T19:39:07.748Z,87.34
2023-03-30T19:41:36.382Z,87.72
2023-03-30T19:44:06.363Z,87.76
2023-03-30T19:46:34.803Z,87.86
2023-03-30T19:49:03.515Z,87.97
2023-03-30T19:51:32.516Z,87.95
2023-03-30T19:54:00.939Z,87.78
2023-03-30T19:56:29.331Z,87.89
2023-03-30T19:58:59.200Z,87.24
2023-03-30T20:01:29.016Z,88.30
2023-03-30T20:04:00.044Z,87.93
2023-03-30T20:06:28.817Z,87.95
2023-03-30T20:08:57.566Z,88.13
2023-03-30T20:11:26.389Z,88.15
2023-03-30T20:13:55.623Z,88.51
2023-03-30T20:16:26.140Z,88.32
2023-03-30T20:18:57.686Z,87.69
2023-03-30T20:21:26.932Z,87.99
2023-03-30T20:23:58.811Z,88.55
2023-03-30T20:26:27.888Z,88.16
2023-03-30T20:28:56.720Z,88.49
2023-03-30T20:31:26.319Z,88.48
2023-03-30T20:33:56.149Z,88.53
2023-03-30T20:36:25.599Z,88.92
2023-03-30T20:38:55.706Z,88.54
2023-03-30T20:41:25.230Z,88.53
2023-03-30T20:43:57.430Z,88.85
2023-03-30T20:46:35.650Z,88.06
2023-03-30T20:49:06.004Z,88.87
2023-03-30T20:51:34.442Z,88.35
2023-03-30T20:54:02.812Z,88.70
2023-03-30T20:56:31.282Z,88.90
2023-03-30T20:58:59.935Z,88.95
2023-03-30T21:01:29.641Z,89.09
2023-03-30T21:03:59.064Z,89.04
2023-03-30T21:06:29.974Z,89.15
2023-03-30T21:09:00.554Z,89.28
2023-03-30T21:11:29.690Z,89.57
2023-03-30T21:13:58.415Z,89.21
2023-03-30T21:16:27.157Z,88.86
2023-03-30T21:18:55.806Z,89.14
2023-03-30T21:21:24.488Z,89.58
2023-03-30T21:23:54.295Z,89.25
2023-03-30T21:26:23.713Z,88.92
2023-03-30T21:28:52.077Z,88.88
2023-03-30T21:31:20.788Z,88.70
2023-03-30T21:33:49.252Z,88.32
2023-03-30T21:36:17.853Z,89.16
2023-03-30T21:38:46.543Z,88.98
2023-03-30T21:41:17.375Z,89.01
2023-03-30T21:43:47.615Z,88.93
2023-03-30T21:46:17.763Z,89.03
2023-03-30T21:48:47.221Z,89.31
2023-03-30T21:51:16.610Z,88.50
2023-03-30T21:53:46.702Z,88.97
2023-03-30T21:56:16.722Z,88.83
2023-03-30T21:58:45.092Z,88.87
2023-03-30T22:01:13.625Z,88.86
2023-03-30T22:03:42.644Z,89.45
2023-03-30T22:06:11.929Z,88.57
2023-03-30T22:08:40.613Z,88.96
2023-03-30T22:11:09.959Z,89.22
2023-03-30T22:13:39.744Z,88.73
2023-03-30T22:16:09.989Z,88.76
2023-03-30T22:18:38.583Z,88.64
2023-03-30T22:21:08.171Z,88.15
2023-03-30T22:23:36.990Z,88.35
2023-03-30T22:26:06.811Z,88.30
2023-03-30T22:28:35.541Z,88.36
2023-03-30T22:31:07.453Z,88.15
2023-03-30T22:33:36.412Z,88.65
2023-03-30T22:36:05.393Z,87.98
2023-03-30T22:38:34.132Z,88.46
2023-03-30T22:41:06.438Z,88.36
2023-03-30T22:43:35.982Z,88.04
2023-03-30T22:46:06.928Z,88.89
2023-03-30T22:48:36.188Z,88.58
2023-03-30T22:51:04.862Z,88.58
2023-03-30T22:53:33.980Z,89.09
2023-03-30T22:56:02.907Z,89.05
2023-03-30T22:58:31.461Z,88.45
2023-03-30T23:01:03.030Z,88.89
2023-03-30T23:03:33.154Z,88.59
2023-03-30T23:06:01.922Z,89.37
2023-03-30T23:08:31.267Z,89.68
2023-03-30T23:11:05.314Z,88.71
2023-03-30T23:13:37.993Z,88.73
2023-03-30T23:16:08.145Z,89.01
2023-03-30T23:18:38.720Z,89.18
2023-03-30T23:21:07.638Z,88.90
2023-03-30T23:23:36.732Z,88.13
2023-03-30T23:26:09.694Z,89.17
2023-03-30T23:28:39.848Z,88.93
2023-03-30T23:31:08.726Z,89.00
2023-03-30T23:33:38.644Z,88.84
2023-03-30T23:36:08.106Z,89.17
2023-03-30T23:38:37.617Z,88.62
2023-03-30T23:41:06.659Z,88.35
2023-03-30T23:43:35.092Z,88.77
2023-03-30T23:46:03.923Z,89.26
2023-03-30T23:48:33.023Z,89.62
2023-03-30T23:51:03.028Z,88.85
2023-03-30T23:53:31.875Z,89.24
2023-03-30T23:56:00.396Z,89.28
2023-03-30T23:58:29.773Z,89.27
